createdAt,value
2023-04-15T00:00:03.860Z,7.75
2023-04-15T00:02:30.161Z,5.13
2023-04-15T00:04:56.482Z,4.25
2023-04-15T00:07:22.817Z,4.47
2023-04-15T00:09:49.280Z,4.85
2023-04-15T00:12:15.511Z,4.85
2023-04-15T00:14:41.768Z,5.35
2023-04-15T00:17:08.130Z,5.40
2023-04-15T00:19:34.579Z,5.68
2023-04-15T00:22:01.365Z,5.10
2023-04-15T00:24:27.853Z,4.82
2023-04-15T00:26:54.506Z,5.15
2023-04-15T00:29:20.812Z,5.03
2023-04-15T00:31:47.041Z,5.82
2023-04-15T00:34:13.620Z,12.43
2023-04-15T00:36:39.905Z,13.10
2023-04-15T00:39:06.243Z,8.98
2023-04-15T00:41:33.991Z,6.40
2023-04-15T00:44:02.251Z,7.20
2023-04-15T00:46:29.556Z,6.30
2023-04-15T00:48:56.044Z,5.22
2023-04-15T00:51:22.261Z,5.53
2023-04-15T00:53:48.477Z,4.80
2023-04-15T00:56:20.152Z,4.97
2023-04-15T00:58:46.373Z,5.15
2023-04-15T01:01:12.664Z,4.95
2023-04-15T01:03:39.077Z,5.65
2023-04-15T01:06:05.585Z,5.05
2023-04-15T01:08:31.956Z,5.25
2023-04-15T01:11:01.295Z,4.28
2023-04-15T01:13:28.027Z,4.55
2023-04-15T01:15:56.064Z,5.65
2023-04-15T01:18:22.427Z,6.78
2023-04-15T01:20:48.666Z,6.63
2023-04-15T01:23:15.283Z,5.40
2023-04-15T01:25:41.907Z,5.80
2023-04-15T01:28:09.432Z,5.32
2023-04-15T01:30:35.787Z,5.10
2023-04-15T01:33:02.623Z,4.60
2023-04-15T01:42:05.372Z,6.32
2023-04-15T01:44:31.578Z,7.80
2023-04-15T01:46:58.460Z,5.95
2023-04-15T01:49:24.913Z,5.82
2023-04-15T01:51:51.119Z,5.28
2023-04-15T01:54:17.458Z,5.80
2023-04-15T01:56:43.980Z,7.50
2023-04-15T01:59:10.299Z,6.00
2023-04-15T02:01:36.850Z,6.55
2023-04-15T02:04:03.184Z,5.00
2023-04-15T02:06:29.499Z,5.80
2023-04-15T02:08:55.765Z,4.88
2023-04-15T02:11:23.003Z,4.93
2023-04-15T02:13:49.369Z,4.15
2023-04-15T02:16:17.116Z,4.63
2023-04-15T02:18:46.947Z,4.80
2023-04-15T02:21:13.506Z,4.90
2023-04-15T02:23:39.728Z,3.97
2023-04-15T02:26:05.957Z,4.13
2023-04-15T02:28:32.204Z,4.60
2023-04-15T02:30:59.767Z,4.20
2023-04-15T02:33:26.097Z,4.00
2023-04-15T02:35:53.151Z,4.60
2023-04-15T02:38:19.357Z,4.70
2023-04-15T02:40:46.100Z,4.45
2023-04-15T02:43:12.439Z,4.72
2023-04-15T02:45:38.797Z,3.40
2023-04-15T02:48:06.547Z,4.30
2023-04-15T02:50:33.312Z,4.50
2023-04-15T02:53:01.161Z,4.32
2023-04-15T02:55:27.735Z,5.25
2023-04-15T02:57:53.940Z,4.15
2023-04-15T03:00:20.578Z,4.32
2023-04-15T03:02:47.259Z,3.53
2023-04-15T03:05:14.188Z,3.72
2023-04-15T03:07:40.892Z,3.42
2023-04-15T03:10:07.740Z,3.58
2023-04-15T03:15:01.991Z,3.40
2023-04-15T03:17:28.312Z,3.65
2023-04-15T03:19:54.623Z,3.75
2023-04-15T03:22:20.875Z,4.57
2023-04-15T03:24:47.084Z,3.75
2023-04-15T03:27:13.700Z,5.28
2023-04-15T03:29:40.454Z,4.82
2023-04-15T03:32:06.651Z,4.63
2023-04-15T03:34:32.865Z,4.57
2023-04-15T03:36:59.175Z,3.72
2023-04-15T03:39:25.636Z,3.80
2023-04-15T03:41:51.839Z,4.07
2023-04-15T03:44:18.053Z,4.50
2023-04-15T03:46:44.373Z,3.80
2023-04-15T03:49:10.669Z,3.95
2023-04-15T03:51:36.915Z,3.92
2023-04-15T03:54:03.259Z,3.83
2023-04-15T03:56:29.529Z,4.07
2023-04-15T03:58:55.830Z,3.92
2023-04-15T04:01:22.733Z,3.53
2023-04-15T04:06:15.577Z,6.43
2023-04-15T04:08:41.794Z,4.60
2023-04-15T04:11:08.014Z,5.22
2023-04-15T04:13:34.227Z,4.75
2023-04-15T04:16:00.886Z,3.92
2023-04-15T04:18:27.134Z,4.38
2023-04-15T04:20:53.392Z,4.03
2023-04-15T04:23:19.669Z,3.88
2023-04-15T04:25:46.111Z,3.35
2023-04-15T04:28:12.368Z,8.10
2023-04-15T04:30:38.774Z,4.45
2023-04-15T04:33:05.048Z,6.45
2023-04-15T04:35:33.612Z,4.93
2023-04-15T04:37:59.816Z,3.85
2023-04-15T04:40:26.222Z,4.50
2023-04-15T04:42:52.445Z,4.60
2023-04-15T04:45:18.723Z,4.82
2023-04-15T04:47:45.429Z,5.18
2023-04-15T04:50:11.985Z,4.15
2023-04-15T04:52:38.487Z,5.50
2023-04-15T04:55:05.211Z,4.47
2023-04-15T04:57:31.427Z,3.85
2023-04-15T04:59:57.706Z,4.72
2023-04-15T05:02:24.137Z,4.85
2023-04-15T05:07:18.012Z,4.25
2023-04-15T05:09:44.224Z,4.03
2023-04-15T05:12:14.795Z,3.95
2023-04-15T05:14:41.745Z,3.60
2023-04-15T05:19:34.171Z,3.33
2023-04-15T05:22:00.414Z,4.30
2023-04-15T05:24:27.137Z,4.63
2023-04-15T05:26:53.368Z,4.28
2023-04-15T05:29:19.569Z,3.92
2023-04-15T05:31:45.774Z,4.78
2023-04-15T05:34:12.408Z,4.60
2023-04-15T05:36:38.732Z,4.05
2023-04-15T05:39:04.942Z,3.92
2023-04-15T05:41:31.502Z,4.45
2023-04-15T05:43:57.778Z,4.70
2023-04-15T05:46:24.083Z,3.75
2023-04-15T05:48:50.611Z,4.20
2023-04-15T05:51:16.855Z,15.07
2023-04-15T05:53:43.055Z,15.88
2023-04-15T05:56:09.314Z,11.80
2023-04-15T05:58:35.700Z,27.25
2023-04-15T06:01:02.622Z,15.85
2023-04-15T06:05:56.340Z,12.32
2023-04-15T06:08:22.541Z,14.77
2023-04-15T06:10:48.764Z,8.13
2023-04-15T06:13:15.002Z,5.63
2023-04-15T06:15:41.225Z,10.85
2023-04-15T06:18:07.427Z,9.48
2023-04-15T06:20:33.670Z,6.78
2023-04-15T06:22:59.920Z,6.10
2023-04-15T06:25:26.166Z,4.03
2023-04-15T06:27:52.389Z,13.32
2023-04-15T06:30:18.664Z,4.65
2023-04-15T06:32:44.951Z,24.95
2023-04-15T06:35:11.552Z,34.47
2023-04-15T06:37:37.784Z,11.02
2023-04-15T06:40:05.096Z,9.88
2023-04-15T06:42:31.536Z,7.35
2023-04-15T06:44:57.740Z,8.60
2023-04-15T06:47:24.013Z,6.68
2023-04-15T06:49:50.262Z,7.07
2023-04-15T06:52:16.639Z,5.75
2023-04-15T06:54:42.992Z,4.50
2023-04-15T06:57:09.643Z,5.28
2023-04-15T06:59:36.010Z,5.88
2023-04-15T07:02:02.256Z,5.80
2023-04-15T07:04:28.519Z,5.82
2023-04-15T07:06:55.575Z,5.22
2023-04-15T07:11:48.026Z,6.40
2023-04-15T07:14:14.230Z,6.07
2023-04-15T07:16:40.500Z,6.13
2023-04-15T07:19:07.264Z,6.85
2023-04-15T07:21:33.528Z,5.82
2023-04-15T07:23:59.762Z,6.30
2023-04-15T07:26:26.029Z,7.00
2023-04-15T07:28:52.244Z,7.57
2023-04-15T07:31:18.576Z,6.45
2023-04-15T07:33:45.054Z,6.95
2023-04-15T07:36:11.290Z,7.05
2023-04-15T07:38:37.549Z,7.35
2023-04-15T07:41:04.820Z,7.10
2023-04-15T07:43:31.033Z,6.40
2023-04-15T07:45:57.276Z,7.72
2023-04-15T07:48:23.498Z,7.00
2023-04-15T07:50:50.220Z,6.60
2023-04-15T07:53:16.430Z,6.38
2023-04-15T07:55:42.649Z,6.93
2023-04-15T07:58:08.854Z,7.97
2023-04-15T08:00:35.104Z,10.02
2023-04-15T08:03:01.522Z,11.77
2023-04-15T08:05:27.894Z,8.05
2023-04-15T08:07:54.163Z,7.43
2023-04-15T08:10:20.528Z,8.05
2023-04-15T08:12:49.392Z,7.65
2023-04-15T08:15:15.620Z,7.50
2023-04-15T08:17:41.907Z,7.00
2023-04-15T08:20:08.205Z,8.43
2023-04-15T08:22:34.478Z,6.72
2023-04-15T08:25:00.689Z,24.23
2023-04-15T08:27:27.032Z,12.75
2023-04-15T08:29:53.453Z,16.30
2023-04-15T08:32:20.351Z,6.13
2023-04-15T08:37:12.898Z,7.00
2023-04-15T08:39:39.134Z,5.68
2023-04-15T08:42:11.814Z,6.25
2023-04-15T08:44:38.496Z,4.70
2023-04-15T08:47:07.619Z,5.93
2023-04-15T08:49:35.540Z,5.07
2023-04-15T08:52:02.675Z,5.28
2023-04-15T08:54:29.156Z,5.80
2023-04-15T08:56:57.780Z,5.03
2023-04-15T08:59:24.118Z,4.55
2023-04-15T09:01:51.285Z,4.65
2023-04-15T09:04:18.011Z,5.00
2023-04-15T09:06:44.456Z,4.82
2023-04-15T09:09:12.213Z,5.00
2023-04-15T09:11:38.576Z,4.57
2023-04-15T09:14:04.835Z,4.65
2023-04-15T09:16:31.718Z,3.97
2023-04-15T09:18:58.031Z,4.43
2023-04-15T09:21:24.486Z,3.35
2023-04-15T09:23:54.959Z,3.65
2023-04-15T09:26:30.645Z,4.10
2023-04-15T09:29:03.581Z,3.72
2023-04-15T09:31:30.597Z,4.03
2023-04-15T09:33:57.087Z,4.70
2023-04-15T09:36:24.951Z,4.50
2023-04-15T09:38:55.557Z,4.80
2023-04-15T09:41:21.755Z,4.80
2023-04-15T09:43:47.981Z,7.20
2023-04-15T09:46:14.249Z,4.97
2023-04-15T09:48:40.609Z,4.53
2023-04-15T09:51:07.004Z,5.00
2023-04-15T09:53:34.552Z,5.13
2023-04-15T09:56:02.272Z,6.57
2023-04-15T09:58:28.533Z,6.18
2023-04-15T10:00:56.429Z,5.18
2023-04-15T10:03:31.117Z,5.07
2023-04-15T10:05:58.634Z,4.20
2023-04-15T10:08:26.083Z,4.10
2023-04-15T10:10:52.440Z,4.28
2023-04-15T10:13:19.656Z,6.13
2023-04-15T10:15:48.990Z,4.72
2023-04-15T10:18:16.510Z,5.78
2023-04-15T10:20:42.775Z,5.05
2023-04-15T10:23:10.944Z,3.33
2023-04-15T10:25:38.732Z,3.22
2023-04-15T10:28:06.629Z,3.20
2023-04-15T10:30:36.648Z,3.10
2023-04-15T10:33:03.814Z,3.00
2023-04-15T10:35:30.993Z,3.35
2023-04-15T10:37:57.364Z,3.33
2023-04-15T10:40:27.936Z,2.90
2023-04-15T10:42:54.901Z,2.90
2023-04-15T10:45:21.298Z,2.75
2023-04-15T10:47:51.858Z,3.20
2023-04-15T10:50:18.813Z,3.28
2023-04-15T10:52:45.057Z,3.05
2023-04-15T10:55:17.832Z,3.20
2023-04-15T10:57:44.220Z,2.67
2023-04-15T11:00:12.054Z,2.88
2023-04-15T11:02:39.538Z,3.50
2023-04-15T11:05:05.983Z,4.28
2023-04-15T11:07:35.751Z,3.13
2023-04-15T11:10:02.532Z,3.47
2023-04-15T11:14:54.912Z,4.13
2023-04-15T11:17:28.871Z,3.72
2023-04-15T11:19:55.529Z,4.38
2023-04-15T11:22:21.757Z,4.78
2023-04-15T11:24:50.414Z,4.13
2023-04-15T11:27:23.303Z,5.05
2023-04-15T11:29:49.843Z,4.20
2023-04-15T11:32:16.121Z,4.80
2023-04-15T11:34:45.331Z,4.47
2023-04-15T11:37:11.733Z,4.43
2023-04-15T11:39:37.984Z,4.15
2023-04-15T11:42:04.211Z,4.55
2023-04-15T11:44:30.430Z,5.03
2023-04-15T11:46:56.742Z,4.80
2023-04-15T11:49:26.835Z,4.80
2023-04-15T11:51:53.045Z,4.25
2023-04-15T11:54:19.496Z,5.03
2023-04-15T11:56:50.051Z,4.13
2023-04-15T11:59:16.568Z,2.70
2023-04-15T12:04:13.321Z,2.97
2023-04-15T12:06:39.673Z,3.22
2023-04-15T12:09:32.516Z,3.58
2023-04-15T12:11:59.058Z,2.80
2023-04-15T12:14:28.943Z,2.78
2023-04-15T12:16:58.300Z,3.13
2023-04-15T12:19:26.561Z,6.32
2023-04-15T12:21:54.306Z,4.28
2023-04-15T12:24:22.911Z,2.80
2023-04-15T12:26:53.461Z,3.03
2023-04-15T12:29:20.317Z,2.83
2023-04-15T12:31:58.186Z,2.80
2023-04-15T12:34:29.318Z,2.80
2023-04-15T12:36:56.233Z,3.50
2023-04-15T12:39:23.825Z,2.83
2023-04-15T12:41:50.080Z,3.63
2023-04-15T12:44:16.299Z,2.53
2023-04-15T12:46:42.572Z,3.20
2023-04-15T12:49:09.266Z,3.38
2023-04-15T12:51:35.492Z,3.03
2023-04-15T12:54:01.773Z,4.18
2023-04-15T12:56:28.055Z,3.78
2023-04-15T12:58:54.272Z,3.90
2023-04-15T13:01:20.873Z,3.78
2023-04-15T13:03:48.002Z,3.80
2023-04-15T13:06:14.332Z,3.78
2023-04-15T13:08:45.215Z,3.45
2023-04-15T13:11:14.267Z,3.88
2023-04-15T13:13:40.505Z,3.45
2023-04-15T13:16:06.969Z,3.58
2023-04-15T13:18:34.675Z,3.92
2023-04-15T13:21:01.294Z,3.42
2023-04-15T13:23:27.667Z,3.15
2023-04-15T13:25:53.907Z,3.08
2023-04-15T13:28:20.390Z,2.80
2023-04-15T13:30:48.745Z,2.65
2023-04-15T13:33:14.966Z,3.13
2023-04-15T13:35:41.464Z,2.47
2023-04-15T13:38:07.691Z,2.00
2023-04-15T13:40:33.970Z,2.28
2023-04-15T13:43:00.271Z,2.28
2023-04-15T13:45:26.908Z,2.00
2023-04-15T13:47:53.319Z,2.20
2023-04-15T13:50:19.588Z,2.08
2023-04-15T13:52:45.847Z,2.10
2023-04-15T13:55:20.324Z,1.45
2023-04-15T13:57:48.218Z,2.38
2023-04-15T14:00:14.644Z,1.83
2023-04-15T14:02:42.077Z,2.15
2023-04-15T14:05:08.762Z,1.67
2023-04-15T14:07:35.001Z,1.73
2023-04-15T14:10:01.304Z,2.08
2023-04-15T14:12:27.523Z,1.30
2023-04-15T14:14:53.747Z,1.38
2023-04-15T14:17:20.190Z,1.50
2023-04-15T14:19:46.506Z,1.40
2023-04-15T14:22:12.708Z,1.20
2023-04-15T14:24:38.969Z,1.23
2023-04-15T14:27:06.066Z,1.83
2023-04-15T14:29:32.358Z,1.30
2023-04-15T14:32:03.841Z,1.20
2023-04-15T14:34:37.965Z,1.17
2023-04-15T14:37:04.996Z,1.33
2023-04-15T14:39:31.217Z,0.90
2023-04-15T14:41:57.566Z,0.80
2023-04-15T14:44:24.107Z,0.98
2023-04-15T14:46:50.972Z,0.52
2023-04-15T14:49:17.629Z,0.77
2023-04-15T14:51:43.895Z,0.73
2023-04-15T14:54:10.358Z,1.05
2023-04-15T14:56:36.637Z,0.65
2023-04-15T14:59:03.141Z,1.02
2023-04-15T15:01:30.157Z,0.88
2023-04-15T15:06:22.982Z,1.00
2023-04-15T15:08:49.433Z,1.80
2023-04-15T15:11:16.108Z,3.97
2023-04-15T15:13:42.468Z,1.80
2023-04-15T15:16:09.012Z,1.00
2023-04-15T15:18:35.723Z,0.95
2023-04-15T15:21:02.109Z,1.10
2023-04-15T15:23:28.372Z,1.45
2023-04-15T15:25:54.625Z,1.17
2023-04-15T15:28:21.784Z,1.33
2023-04-15T15:30:48.126Z,1.42
2023-04-15T15:33:14.348Z,1.17
2023-04-15T15:35:41.041Z,1.30
2023-04-15T15:38:07.341Z,1.80
2023-04-15T15:40:33.621Z,1.20
2023-04-15T15:42:59.901Z,1.45
2023-04-15T15:45:26.243Z,1.80
2023-04-15T15:47:52.674Z,1.10
2023-04-15T15:50:19.010Z,1.17
2023-04-15T15:52:45.732Z,1.30
2023-04-15T15:55:11.974Z,1.50
2023-04-15T15:57:38.201Z,1.17
2023-04-15T16:00:11.770Z,1.48
2023-04-15T16:05:08.131Z,1.60
2023-04-15T16:07:34.385Z,1.67
2023-04-15T16:10:00.685Z,1.60
2023-04-15T16:12:26.972Z,1.52
2023-04-15T16:14:53.261Z,1.80
2023-04-15T16:17:19.498Z,1.80
2023-04-15T16:19:59.145Z,2.10
2023-04-15T16:22:27.024Z,2.10
2023-04-15T16:24:53.255Z,3.10
2023-04-15T16:27:19.483Z,2.03
2023-04-15T16:29:45.876Z,1.88
2023-04-15T16:32:12.168Z,1.90
2023-04-15T16:34:40.886Z,2.60
2023-04-15T16:37:07.126Z,2.35
2023-04-15T16:39:33.437Z,2.80
2023-04-15T16:41:59.973Z,3.17
2023-04-15T16:44:26.247Z,2.85
2023-04-15T16:46:52.503Z,3.03
2023-04-15T16:49:18.719Z,2.53
2023-04-15T16:51:44.971Z,2.58
2023-04-15T16:54:11.197Z,2.92
2023-04-15T16:56:37.458Z,3.80
2023-04-15T16:59:03.812Z,3.67
2023-04-15T17:01:30.369Z,6.82
2023-04-15T17:03:56.681Z,4.28
2023-04-15T17:06:22.947Z,2.60
2023-04-15T17:08:49.176Z,3.55
2023-04-15T17:11:15.640Z,4.15
2023-04-15T17:13:41.906Z,3.00
